sensor_id;sensor_type;location;lat;lon;timestamp;pressure;altitude;pressure_sealevel;temperature;humidity
50226;BME280;36113;50.742;6.432;2023-08-20T00:02:11;99275.28;;;19.16;84.94
50226;BME280;36113;50.742;6.432;2023-08-20T00:04:36;99287.09;;;19.16;84.64
50226;BME280;36113;50.742;6.432;2023-08-20T00:07:02;99290.66;;;19.17;84.61
50226;BME280;36113;50.742;6.432;2023-08-20T00:09:27;99292.94;;;19.15;84.62
50226;BME280;36113;50.742;6.432;2023-08-20T00:11:53;99295.69;;;19.15;84.45
50226;BME280;36113;50.742;6.432;2023-08-20T00:14:18;99302.66;;;19.12;84.51
50226;BME280;36113;50.742;6.432;2023-08-20T00:16:43;99299.28;;;19.15;84.63
50226;BME280;36113;50.742;6.432;2023-08-20T00:19:09;99304.34;;;19.22;84.33
50226;BME280;36113;50.742;6.432;2023-08-20T00:21:34;99307.44;;;19.29;84.31
50226;BME280;36113;50.742;6.432;2023-08-20T00:24:00;99312.50;;;19.36;84.37
50226;BME280;36113;50.742;6.432;2023-08-20T00:26:25;99307.97;;;19.40;84.02
50226;BME280;36113;50.742;6.432;2023-08-20T00:28:50;99310.91;;;19.43;84.04
50226;BME280;36113;50.742;6.432;2023-08-20T00:31:16;99316.41;;;19.43;84.26
50226;BME280;36113;50.742;6.432;2023-08-20T00:33:41;99327.78;;;19.42;84.66
50226;BME280;36113;50.742;6.432;2023-08-20T00:36:06;99329.06;;;19.44;84.62
50226;BME280;36113;50.742;6.432;2023-08-20T00:38:32;99324.38;;;19.45;84.08
50226;BME280;36113;50.742;6.432;2023-08-20T00:40:57;99325.53;;;19.44;84.31
50226;BME280;36113;50.742;6.432;2023-08-20T00:43:22;99314.50;;;19.44;84.26
50226;BME280;36113;50.742;6.432;2023-08-20T00:45:47;99323.06;;;19.42;84.27
50226;BME280;36113;50.742;6.432;2023-08-20T00:48:13;99315.91;;;19.41;84.38
50226;BME280;36113;50.742;6.432;2023-08-20T00:50:38;99331.34;;;19.42;84.57
50226;BME280;36113;50.742;6.432;2023-08-20T00:53:04;99324.53;;;19.40;84.54
50226;BME280;36113;50.742;6.432;2023-08-20T00:55:30;99326.31;;;19.44;84.54
50226;BME280;36113;50.742;6.432;2023-08-20T00:57:55;99328.59;;;19.42;84.12
50226;BME280;36113;50.742;6.432;2023-08-20T01:00:20;99323.88;;;19.43;83.99
50226;BME280;36113;50.742;6.432;2023-08-20T01:02:46;99316.75;;;19.42;83.91
50226;BME280;36113;50.742;6.432;2023-08-20T01:05:11;99304.41;;;19.39;84.20
50226;BME280;36113;50.742;6.432;2023-08-20T01:10:29;99305.81;;;19.28;84.52
50226;BME280;36113;50.742;6.432;2023-08-20T01:12:57;99299.94;;;19.21;84.46
50226;BME280;36113;50.742;6.432;2023-08-20T01:15:23;99295.06;;;19.18;84.52
50226;BME280;36113;50.742;6.432;2023-08-20T01:17:48;99291.97;;;19.11;84.96
50226;BME280;36113;50.742;6.432;2023-08-20T01:20:14;99294.84;;;19.06;84.84
50226;BME280;36113;50.742;6.432;2023-08-20T01:30:38;99290.91;;;18.75;85.89
50226;BME280;36113;50.742;6.432;2023-08-20T01:33:04;99287.66;;;18.73;85.92
50226;BME280;36113;50.742;6.432;2023-08-20T01:35:30;99286.16;;;18.67;85.93
50226;BME280;36113;50.742;6.432;2023-08-20T01:37:55;99288.19;;;18.61;86.28
50226;BME280;36113;50.742;6.432;2023-08-20T01:40:20;99288.84;;;18.58;86.02
50226;BME280;36113;50.742;6.432;2023-08-20T01:42:46;99293.66;;;18.53;86.79
50226;BME280;36113;50.742;6.432;2023-08-20T01:45:11;99294.78;;;18.52;87.19
50226;BME280;36113;50.742;6.432;2023-08-20T01:47:36;99300.59;;;18.50;87.15
50226;BME280;36113;50.742;6.432;2023-08-20T01:50:01;99299.72;;;18.41;87.35
50226;BME280;36113;50.742;6.432;2023-08-20T01:52:27;99306.03;;;18.41;87.28
50226;BME280;36113;50.742;6.432;2023-08-20T01:54:54;99304.41;;;18.40;86.73
50226;BME280;36113;50.742;6.432;2023-08-20T01:57:19;99306.47;;;18.35;86.60
50226;BME280;36113;50.742;6.432;2023-08-20T01:59:44;99301.78;;;18.35;86.77
50226;BME280;36113;50.742;6.432;2023-08-20T02:02:09;99304.84;;;18.34;87.29
50226;BME280;36113;50.742;6.432;2023-08-20T02:04:35;99307.72;;;18.29;87.72
50226;BME280;36113;50.742;6.432;2023-08-20T02:07:00;99309.47;;;18.25;87.95
50226;BME280;36113;50.742;6.432;2023-08-20T02:09:25;99318.53;;;18.25;87.46
50226;BME280;36113;50.742;6.432;2023-08-20T02:11:51;99318.16;;;18.18;88.26
50226;BME280;36113;50.742;6.432;2023-08-20T02:14:16;99316.06;;;18.24;87.80
50226;BME280;36113;50.742;6.432;2023-08-20T02:16:42;99316.72;;;18.20;88.26
50226;BME280;36113;50.742;6.432;2023-08-20T02:19:07;99321.41;;;18.20;88.18
50226;BME280;36113;50.742;6.432;2023-08-20T02:21:32;99318.31;;;18.22;88.46
50226;BME280;36113;50.742;6.432;2023-08-20T02:23:58;99323.81;;;18.22;88.25
50226;BME280;36113;50.742;6.432;2023-08-20T02:26:23;99324.34;;;18.24;88.46
50226;BME280;36113;50.742;6.432;2023-08-20T02:28:48;99333.72;;;18.23;88.22
50226;BME280;36113;50.742;6.432;2023-08-20T02:31:13;99336.78;;;18.21;88.37
50226;BME280;36113;50.742;6.432;2023-08-20T02:33:39;99346.56;;;18.27;88.34
50226;BME280;36113;50.742;6.432;2023-08-20T02:36:04;99347.25;;;18.33;88.43
50226;BME280;36113;50.742;6.432;2023-08-20T02:38:29;99340.94;;;18.32;88.44
50226;BME280;36113;50.742;6.432;2023-08-20T02:40:55;99341.56;;;18.29;88.71
50226;BME280;36113;50.742;6.432;2023-08-20T02:43:20;99341.84;;;18.28;88.72
50226;BME280;36113;50.742;6.432;2023-08-20T02:45:45;99350.63;;;18.30;88.66
50226;BME280;36113;50.742;6.432;2023-08-20T02:48:10;99334.63;;;18.32;88.32
50226;BME280;36113;50.742;6.432;2023-08-20T02:50:36;99339.81;;;18.33;87.94
50226;BME280;36113;50.742;6.432;2023-08-20T02:53:01;99344.81;;;18.31;88.22
50226;BME280;36113;50.742;6.432;2023-08-20T02:55:26;99347.56;;;18.31;87.89
50226;BME280;36113;50.742;6.432;2023-08-20T02:57:51;99346.56;;;18.27;87.81
50226;BME280;36113;50.742;6.432;2023-08-20T03:00:17;99344.41;;;18.24;88.08
50226;BME280;36113;50.742;6.432;2023-08-20T03:02:42;99336.47;;;18.23;87.99
50226;BME280;36113;50.742;6.432;2023-08-20T03:05:08;99336.47;;;18.23;88.27
50226;BME280;36113;50.742;6.432;2023-08-20T03:07:33;99338.44;;;18.22;88.15
50226;BME280;36113;50.742;6.432;2023-08-20T03:09:59;99336.16;;;18.24;88.32
50226;BME280;36113;50.742;6.432;2023-08-20T03:12:24;99339.91;;;18.28;88.27
50226;BME280;36113;50.742;6.432;2023-08-20T03:14:49;99349.09;;;18.24;88.61
50226;BME280;36113;50.742;6.432;2023-08-20T03:17:14;99349.72;;;18.20;88.66
50226;BME280;36113;50.742;6.432;2023-08-20T03:19:46;99361.75;;;18.25;88.71
50226;BME280;36113;50.742;6.432;2023-08-20T03:22:18;99360.00;;;18.29;88.60
50226;BME280;36113;50.742;6.432;2023-08-20T03:24:43;99357.66;;;18.36;88.35
50226;BME280;36113;50.742;6.432;2023-08-20T03:27:08;99353.44;;;18.38;88.05
50226;BME280;36113;50.742;6.432;2023-08-20T03:29:33;99360.66;;;18.48;87.90
50226;BME280;36113;50.742;6.432;2023-08-20T03:31:58;99359.28;;;18.59;87.26
50226;BME280;36113;50.742;6.432;2023-08-20T03:34:24;99360.19;;;18.69;86.71
50226;BME280;36113;50.742;6.432;2023-08-20T03:36:49;99363.06;;;18.77;86.45
50226;BME280;36113;50.742;6.432;2023-08-20T03:39:14;99366.78;;;18.81;85.82
50226;BME280;36113;50.742;6.432;2023-08-20T03:41:39;99361.47;;;18.85;85.29
50226;BME280;36113;50.742;6.432;2023-08-20T03:44:05;99369.31;;;18.92;85.07
50226;BME280;36113;50.742;6.432;2023-08-20T03:46:30;99367.84;;;18.94;84.76
50226;BME280;36113;50.742;6.432;2023-08-20T03:48:56;99371.75;;;18.93;84.08
50226;BME280;36113;50.742;6.432;2023-08-20T03:51:21;99369.50;;;18.95;84.24
50226;BME280;36113;50.742;6.432;2023-08-20T03:53:46;99369.50;;;18.95;84.01
50226;BME280;36113;50.742;6.432;2023-08-20T03:56:11;99363.50;;;18.93;83.68
50226;BME280;36113;50.742;6.432;2023-08-20T03:58:36;99363.78;;;18.92;83.92
50226;BME280;36113;50.742;6.432;2023-08-20T04:01:02;99369.50;;;18.95;83.67
50226;BME280;36113;50.742;6.432;2023-08-20T04:03:28;99379.88;;;18.98;83.02
50226;BME280;36113;50.742;6.432;2023-08-20T04:05:53;99369.38;;;19.00;83.17
50226;BME280;36113;50.742;6.432;2023-08-20T04:08:19;99373.72;;;19.01;83.02
50226;BME280;36113;50.742;6.432;2023-08-20T04:10:44;99373.72;;;19.01;82.57
50226;BME280;36113;50.742;6.432;2023-08-20T04:13:12;99382.00;;;19.01;82.73
50226;BME280;36113;50.742;6.432;2023-08-20T04:15:39;99381.03;;;18.97;83.05
50226;BME280;36113;50.742;6.432;2023-08-20T04:18:05;99378.28;;;18.97;82.74
50226;BME280;36113;50.742;6.432;2023-08-20T04:20:30;99378.38;;;18.92;82.73
50226;BME280;36113;50.742;6.432;2023-08-20T04:22:55;99385.84;;;18.92;82.77
50226;BME280;36113;50.742;6.432;2023-08-20T04:25:20;99380.56;;;18.81;nan
50226;BME280;36113;50.742;6.432;2023-08-20T04:27:46;99392.22;;;18.78;83.43
50226;BME280;36113;50.742;6.432;2023-08-20T04:30:11;99392.31;;;18.73;83.90
50226;BME280;36113;50.742;6.432;2023-08-20T04:32:36;99382.22;;;18.69;84.02
50226;BME280;36113;50.742;6.432;2023-08-20T04:35:02;99385.59;;;18.66;84.82
50226;BME280;36113;50.742;6.432;2023-08-20T04:37:27;99383.47;;;18.63;84.74
50226;BME280;36113;50.742;6.432;2023-08-20T04:39:52;99392.53;;;18.63;84.97
50226;BME280;36113;50.742;6.432;2023-08-20T04:42:17;99392.03;;;18.61;85.44
50226;BME280;36113;50.742;6.432;2023-08-20T04:44:42;99387.34;;;18.61;85.41
50226;BME280;36113;50.742;6.432;2023-08-20T04:47:11;99392.84;;;18.61;85.59
50226;BME280;36113;50.742;6.432;2023-08-20T04:49:36;99392.16;;;18.56;85.49
50226;BME280;36113;50.742;6.432;2023-08-20T04:52:02;99391.34;;;18.55;85.44
50226;BME280;36113;50.742;6.432;2023-08-20T04:54:27;99402.66;;;18.54;85.65
50226;BME280;36113;50.742;6.432;2023-08-20T04:56:52;99400.72;;;18.54;85.42
50226;BME280;36113;50.742;6.432;2023-08-20T04:59:17;99390.34;;;18.51;85.65
50226;BME280;36113;50.742;6.432;2023-08-20T05:01:42;99396.84;;;18.55;85.43
50226;BME280;36113;50.742;6.432;2023-08-20T05:04:08;99396.09;;;18.64;85.42
50226;BME280;36113;50.742;6.432;2023-08-20T05:06:33;99405.50;;;18.63;85.21
50226;BME280;36113;50.742;6.432;2023-08-20T05:08:58;99402.91;;;18.66;84.98
50226;BME280;36113;50.742;6.432;2023-08-20T05:11:23;99403.63;;;18.72;85.27
50226;BME280;36113;50.742;6.432;2023-08-20T05:13:49;99401.88;;;18.76;85.29
50226;BME280;36113;50.742;6.432;2023-08-20T05:16:14;99406.25;;;18.77;85.08
50226;BME280;36113;50.742;6.432;2023-08-20T05:18:40;99399.53;;;18.83;84.94
50226;BME280;36113;50.742;6.432;2023-08-20T05:21:05;99397.41;;;18.80;84.98
50226;BME280;36113;50.742;6.432;2023-08-20T05:23:30;99402.28;;;18.83;85.11
50226;BME280;36113;50.742;6.432;2023-08-20T05:25:55;99399.59;;;18.92;84.41
50226;BME280;36113;50.742;6.432;2023-08-20T05:28:21;99404.97;;;18.97;84.50
50226;BME280;36113;50.742;6.432;2023-08-20T05:30:53;99405.38;;;19.04;84.31
50226;BME280;36113;50.742;6.432;2023-08-20T05:33:19;99409.81;;;19.14;84.00
50226;BME280;36113;50.742;6.432;2023-08-20T05:35:44;99413.56;;;19.18;83.75
50226;BME280;36113;50.742;6.432;2023-08-20T05:38:09;99408.22;;;19.21;83.67
50226;BME280;36113;50.742;6.432;2023-08-20T05:40:35;99418.34;;;19.26;83.64
50226;BME280;36113;50.742;6.432;2023-08-20T05:43:00;99415.13;;;19.33;83.63
50226;BME280;36113;50.742;6.432;2023-08-20T05:45:25;99412.75;;;19.40;83.02
50226;BME280;36113;50.742;6.432;2023-08-20T05:47:51;99419.94;;;19.50;82.64
50226;BME280;36113;50.742;6.432;2023-08-20T05:50:16;99421.22;;;19.52;82.87
50226;BME280;36113;50.742;6.432;2023-08-20T05:52:41;99424.03;;;19.61;82.84
50226;BME280;36113;50.742;6.432;2023-08-20T05:55:06;99428.50;;;19.71;82.35
50226;BME280;36113;50.742;6.432;2023-08-20T05:57:32;99423.84;;;19.80;82.21
50226;BME280;36113;50.742;6.432;2023-08-20T05:59:57;99416.41;;;19.89;82.12
50226;BME280;36113;50.742;6.432;2023-08-20T06:02:22;99418.91;;;19.99;81.81
50226;BME280;36113;50.742;6.432;2023-08-20T06:04:47;99423.81;;;20.11;81.74
50226;BME280;36113;50.742;6.432;2023-08-20T06:07:14;99428.56;;;20.37;80.88
50226;BME280;36113;50.742;6.432;2023-08-20T06:09:39;99421.47;;;20.53;80.28
50226;BME280;36113;50.742;6.432;2023-08-20T06:12:04;99423.47;;;20.61;79.80
50226;BME280;36113;50.742;6.432;2023-08-20T06:14:30;99418.75;;;20.62;79.76
50226;BME280;36113;50.742;6.432;2023-08-20T06:16:55;99425.72;;;20.59;79.78
50226;BME280;36113;50.742;6.432;2023-08-20T06:19:20;99421.81;;;20.60;79.88
50226;BME280;36113;50.742;6.432;2023-08-20T06:21:45;99420.53;;;20.66;79.48
50226;BME280;36113;50.742;6.432;2023-08-20T06:24:10;99417.78;;;20.75;79.15
50226;BME280;36113;50.742;6.432;2023-08-20T06:26:36;99413.53;;;20.86;80.05
50226;BME280;36113;50.742;6.432;2023-08-20T06:29:01;99422.00;;;20.99;79.36
50226;BME280;36113;50.742;6.432;2023-08-20T06:31:27;99424.91;;;20.94;79.17
50226;BME280;36113;50.742;6.432;2023-08-20T06:33:52;99432.88;;;20.95;78.96
50226;BME280;36113;50.742;6.432;2023-08-20T06:36:18;99419.56;;;20.97;78.31
50226;BME280;36113;50.742;6.432;2023-08-20T06:38:43;99421.81;;;21.13;77.70
50226;BME280;36113;50.742;6.432;2023-08-20T06:41:08;99431.72;;;21.22;76.78
50226;BME280;36113;50.742;6.432;2023-08-20T06:43:34;99424.91;;;21.11;76.85
50226;BME280;36113;50.742;6.432;2023-08-20T06:45:59;99428.97;;;21.14;77.37
50226;BME280;36113;50.742;6.432;2023-08-20T06:48:24;99435.47;;;21.18;77.39
50226;BME280;36113;50.742;6.432;2023-08-20T06:50:50;99433.34;;;21.41;77.18
50226;BME280;36113;50.742;6.432;2023-08-20T06:53:15;99439.50;;;21.55;76.44
50226;BME280;36113;50.742;6.432;2023-08-20T06:55:40;99438.72;;;21.55;76.17
50226;BME280;36113;50.742;6.432;2023-08-20T06:58:05;99435.78;;;21.16;78.32
50226;BME280;36113;50.742;6.432;2023-08-20T07:00:31;99441.00;;;20.83;79.07
50226;BME280;36113;50.742;6.432;2023-08-20T07:02:56;99435.59;;;20.52;79.33
50226;BME280;36113;50.742;6.432;2023-08-20T07:05:21;99424.50;;;20.34;80.91
50226;BME280;36113;50.742;6.432;2023-08-20T07:07:46;99428.56;;;20.37;80.69
50226;BME280;36113;50.742;6.432;2023-08-20T07:10:11;99433.97;;;20.51;80.93
50226;BME280;36113;50.742;6.432;2023-08-20T07:12:37;99432.56;;;20.71;80.92
50226;BME280;36113;50.742;6.432;2023-08-20T07:15:02;99428.50;;;20.77;79.87
50226;BME280;36113;50.742;6.432;2023-08-20T07:17:28;99430.94;;;20.87;79.75
50226;BME280;36113;50.742;6.432;2023-08-20T07:19:54;99439.53;;;20.94;79.83
50226;BME280;36113;50.742;6.432;2023-08-20T07:22:19;99436.47;;;21.04;79.42
50226;BME280;36113;50.742;6.432;2023-08-20T07:24:44;99434.84;;;21.12;78.10
50226;BME280;36113;50.742;6.432;2023-08-20T07:27:09;99435.94;;;21.37;77.80
50226;BME280;36113;50.742;6.432;2023-08-20T07:29:38;99448.47;;;21.35;77.42
50226;BME280;36113;50.742;6.432;2023-08-20T07:32:03;99445.88;;;21.47;77.47
50226;BME280;36113;50.742;6.432;2023-08-20T07:34:29;99439.28;;;21.78;76.11
50226;BME280;36113;50.742;6.432;2023-08-20T07:36:55;99439.38;;;21.99;75.55
50226;BME280;36113;50.742;6.432;2023-08-20T07:39:21;99435.69;;;22.24;75.14
50226;BME280;36113;50.742;6.432;2023-08-20T07:41:47;99442.28;;;22.41;74.35
50226;BME280;36113;50.742;6.432;2023-08-20T07:44:12;99442.34;;;22.53;73.96
50226;BME280;36113;50.742;6.432;2023-08-20T07:46:37;99436.53;;;22.67;73.67
50226;BME280;36113;50.742;6.432;2023-08-20T07:49:02;99443.31;;;22.57;73.64
50226;BME280;36113;50.742;6.432;2023-08-20T07:51:28;99433.28;;;22.44;74.20
50226;BME280;36113;50.742;6.432;2023-08-20T07:53:53;99452.53;;;22.70;73.71
50226;BME280;36113;50.742;6.432;2023-08-20T07:56:18;99449.53;;;22.54;73.15
50226;BME280;36113;50.742;6.432;2023-08-20T07:58:43;99454.97;;;22.42;73.26
50226;BME280;36113;50.742;6.432;2023-08-20T08:01:09;99451.53;;;22.45;73.79
50226;BME280;36113;50.742;6.432;2023-08-20T08:03:35;99447.72;;;22.79;72.56
50226;BME280;36113;50.742;6.432;2023-08-20T08:06:00;99449.19;;;22.98;71.72
50226;BME280;36113;50.742;6.432;2023-08-20T08:08:25;99450.59;;;23.12;71.18
50226;BME280;36113;50.742;6.432;2023-08-20T08:10:51;99455.44;;;23.16;70.65
50226;BME280;36113;50.742;6.432;2023-08-20T08:13:18;99452.13;;;23.22;70.38
50226;BME280;36113;50.742;6.432;2023-08-20T08:15:44;99459.78;;;23.25;70.37
50226;BME280;36113;50.742;6.432;2023-08-20T08:18:09;99459.56;;;23.30;71.08
50226;BME280;36113;50.742;6.432;2023-08-20T08:20:34;99458.16;;;23.03;70.79
50226;BME280;36113;50.742;6.432;2023-08-20T08:23:00;99455.56;;;22.98;72.48
50226;BME280;36113;50.742;6.432;2023-08-20T08:25:25;99457.31;;;23.24;70.96
50226;BME280;36113;50.742;6.432;2023-08-20T08:27:51;99459.72;;;23.13;71.31
50226;BME280;36113;50.742;6.432;2023-08-20T08:30:16;99468.13;;;22.96;72.15
50226;BME280;36113;50.742;6.432;2023-08-20T08:32:41;99433.88;;;23.00;70.74
50226;BME280;36113;50.742;6.432;2023-08-20T08:35:07;99458.28;;;23.07;70.61
50226;BME280;36113;50.742;6.432;2023-08-20T08:37:32;99457.66;;;23.22;69.98
50226;BME280;36113;50.742;6.432;2023-08-20T08:39:57;99460.03;;;23.32;69.81
50226;BME280;36113;50.742;6.432;2023-08-20T08:42:22;99460.28;;;23.40;69.91
50226;BME280;36113;50.742;6.432;2023-08-20T08:44:49;99465.44;;;23.62;68.59
50226;BME280;36113;50.742;6.432;2023-08-20T08:47:14;99455.53;;;23.73;69.21
50226;BME280;36113;50.742;6.432;2023-08-20T08:49:40;99468.22;;;24.08;68.78
50226;BME280;36113;50.742;6.432;2023-08-20T08:52:05;99474.47;;;24.29;66.84
50226;BME280;36113;50.742;6.432;2023-08-20T08:54:32;99467.53;;;24.35;66.61
50226;BME280;36113;50.742;6.432;2023-08-20T08:56:58;99466.84;;;24.38;64.22
50226;BME280;36113;50.742;6.432;2023-08-20T08:59:23;99467.06;;;24.46;63.50
50226;BME280;36113;50.742;6.432;2023-08-20T09:01:48;99460.56;;;24.42;64.03
50226;BME280;36113;50.742;6.432;2023-08-20T09:04:14;99471.00;;;24.69;64.00
50226;BME280;36113;50.742;6.432;2023-08-20T09:06:45;99466.31;;;24.86;62.65
50226;BME280;36113;50.742;6.432;2023-08-20T09:09:11;99463.00;;;24.68;62.46
50226;BME280;36113;50.742;6.432;2023-08-20T09:11:36;99469.38;;;24.68;62.05
50226;BME280;36113;50.742;6.432;2023-08-20T09:14:01;99469.56;;;24.88;61.89
50226;BME280;36113;50.742;6.432;2023-08-20T09:16:26;99472.03;;;24.77;60.54
50226;BME280;36113;50.742;6.432;2023-08-20T09:18:54;99469.28;;;24.65;61.97
50226;BME280;36113;50.742;6.432;2023-08-20T09:21:20;99476.94;;;24.55;62.76
50226;BME280;36113;50.742;6.432;2023-08-20T09:23:53;99480.25;;;24.36;63.21
50226;BME280;36113;50.742;6.432;2023-08-20T09:26:18;99475.44;;;24.58;62.31
50226;BME280;36113;50.742;6.432;2023-08-20T09:28:44;99480.94;;;24.46;62.04
50226;BME280;36113;50.742;6.432;2023-08-20T09:31:10;99480.94;;;24.46;62.29
50226;BME280;36113;50.742;6.432;2023-08-20T09:33:35;99483.09;;;25.02;62.15
50226;BME280;36113;50.742;6.432;2023-08-20T09:36:02;99480.09;;;25.35;61.16
50226;BME280;36113;50.742;6.432;2023-08-20T09:38:28;99477.13;;;25.56;60.62
50226;BME280;36113;50.742;6.432;2023-08-20T09:40:53;99478.22;;;25.83;59.58
50226;BME280;36113;50.742;6.432;2023-08-20T09:43:21;99469.75;;;25.64;59.15
50226;BME280;36113;50.742;6.432;2023-08-20T09:45:48;99475.09;;;25.85;60.00
50226;BME280;36113;50.742;6.432;2023-08-20T09:48:17;99478.22;;;25.83;59.09
50226;BME280;36113;50.742;6.432;2023-08-20T09:50:44;99480.44;;;26.06;58.87
50226;BME280;36113;50.742;6.432;2023-08-20T09:53:12;99477.38;;;26.27;58.32
50226;BME280;36113;50.742;6.432;2023-08-20T09:55:42;99481.81;;;25.68;58.92
50226;BME280;36113;50.742;6.432;2023-08-20T09:58:08;99486.69;;;25.43;59.86
50226;BME280;36113;50.742;6.432;2023-08-20T10:00:34;99481.25;;;25.46;60.48
50226;BME280;36113;50.742;6.432;2023-08-20T10:02:59;99483.72;;;25.79;60.21
50226;BME280;36113;50.742;6.432;2023-08-20T10:05:25;99479.66;;;25.77;58.43
50226;BME280;36113;50.742;6.432;2023-08-20T10:07:50;99478.03;;;25.60;59.76
50226;BME280;36113;50.742;6.432;2023-08-20T10:10:17;99484.97;;;25.66;59.47
50226;BME280;36113;50.742;6.432;2023-08-20T10:12:42;99483.44;;;25.69;60.27
50226;BME280;36113;50.742;6.432;2023-08-20T10:15:09;99486.06;;;25.21;60.16
50226;BME280;36113;50.742;6.432;2023-08-20T10:17:35;99484.38;;;25.04;61.37
50226;BME280;36113;50.742;6.432;2023-08-20T10:20:02;99485.63;;;25.07;61.49
50226;BME280;36113;50.742;6.432;2023-08-20T10:22:32;99490.97;;;24.99;61.18
50226;BME280;36113;50.742;6.432;2023-08-20T10:24:58;99480.03;;;24.78;61.94
50226;BME280;36113;50.742;6.432;2023-08-20T10:27:32;99487.75;;;24.97;62.09
50226;BME280;36113;50.742;6.432;2023-08-20T10:29:58;99486.34;;;25.44;60.66
50226;BME280;36113;50.742;6.432;2023-08-20T10:33:05;99485.66;;;25.91;60.41
50226;BME280;36113;50.742;6.432;2023-08-20T10:35:12;99491.19;;;25.75;59.74
50226;BME280;36113;50.742;6.432;2023-08-20T10:37:37;99489.63;;;25.62;59.31
50226;BME280;36113;50.742;6.432;2023-08-20T10:40:05;99488.38;;;25.75;60.40
50226;BME280;36113;50.742;6.432;2023-08-20T10:42:30;99491.16;;;25.59;59.60
50226;BME280;36113;50.742;6.432;2023-08-20T10:44:58;99486.44;;;25.48;59.74
50226;BME280;36113;50.742;6.432;2023-08-20T10:47:24;99478.00;;;25.44;60.16
50226;BME280;36113;50.742;6.432;2023-08-20T10:49:51;99485.13;;;26.01;59.21
50226;BME280;36113;50.742;6.432;2023-08-20T10:52:17;99482.88;;;26.23;57.93
50226;BME280;36113;50.742;6.432;2023-08-20T10:54:43;99483.59;;;26.04;59.36
50226;BME280;36113;50.742;6.432;2023-08-20T10:57:08;99489.97;;;26.05;58.61
50226;BME280;36113;50.742;6.432;2023-08-20T10:59:34;99483.41;;;26.13;58.38
50226;BME280;36113;50.742;6.432;2023-08-20T11:02:04;99482.66;;;25.84;59.53
50226;BME280;36113;50.742;6.432;2023-08-20T11:04:32;99481.91;;;25.71;59.34
50226;BME280;36113;50.742;6.432;2023-08-20T11:06:58;99479.81;;;25.96;59.12
50226;BME280;36113;50.742;6.432;2023-08-20T11:09:24;99478.19;;;26.11;58.11
50226;BME280;36113;50.742;6.432;2023-08-20T11:11:50;99486.34;;;26.52;56.55
50226;BME280;36113;50.742;6.432;2023-08-20T11:14:15;99483.94;;;26.34;57.49
50226;BME280;36113;50.742;6.432;2023-08-20T11:16:43;99482.59;;;26.60;56.89
50226;BME280;36113;50.742;6.432;2023-08-20T11:19:09;99485.81;;;26.62;57.36
50226;BME280;36113;50.742;6.432;2023-08-20T11:21:34;99477.25;;;26.71;57.38
50226;BME280;36113;50.742;6.432;2023-08-20T11:24:03;99493.19;;;26.70;57.88
50226;BME280;36113;50.742;6.432;2023-08-20T11:26:29;99483.03;;;26.46;57.70
50226;BME280;36113;50.742;6.432;2023-08-20T11:28:54;99482.94;;;26.42;57.83
50226;BME280;36113;50.742;6.432;2023-08-20T11:31:19;99486.09;;;26.41;58.03
50226;BME280;36113;50.742;6.432;2023-08-20T11:33:44;99485.63;;;26.55;57.81
50226;BME280;36113;50.742;6.432;2023-08-20T11:36:10;99484.19;;;26.77;56.97
50226;BME280;36113;50.742;6.432;2023-08-20T11:38:35;99488.63;;;27.17;56.36
50226;BME280;36113;50.742;6.432;2023-08-20T11:41:00;99486.97;;;27.32;55.17
50226;BME280;36113;50.742;6.432;2023-08-20T11:43:29;99486.94;;;27.51;54.04
50226;BME280;36113;50.742;6.432;2023-08-20T11:45:54;99479.13;;;27.60;53.15
50226;BME280;36113;50.742;6.432;2023-08-20T11:48:19;99474.63;;;27.75;53.41
50226;BME280;36113;50.742;6.432;2023-08-20T11:50:46;99468.72;;;28.00;53.77
50226;BME280;36113;50.742;6.432;2023-08-20T11:53:11;99466.00;;;28.03;52.41
50226;BME280;36113;50.742;6.432;2023-08-20T11:55:37;99461.78;;;27.71;53.37
50226;BME280;36113;50.742;6.432;2023-08-20T11:58:02;99460.84;;;27.63;52.30
50226;BME280;36113;50.742;6.432;2023-08-20T12:00:29;99467.09;;;26.98;53.68
50226;BME280;36113;50.742;6.432;2023-08-20T12:02:55;99466.06;;;26.87;54.62
50226;BME280;36113;50.742;6.432;2023-08-20T12:05:27;99467.75;;;26.56;55.67
50226;BME280;36113;50.742;6.432;2023-08-20T12:08:01;99462.72;;;26.30;55.29
50226;BME280;36113;50.742;6.432;2023-08-20T12:10:28;99462.38;;;25.99;57.79
50226;BME280;36113;50.742;6.432;2023-08-20T12:12:54;99449.31;;;25.72;57.19
50226;BME280;36113;50.742;6.432;2023-08-20T12:15:20;99429.53;;;25.77;57.80
50226;BME280;36113;50.742;6.432;2023-08-20T12:17:59;99447.91;;;26.10;55.37
50226;BME280;36113;50.742;6.432;2023-08-20T12:20:26;99443.91;;;26.42;54.14
50226;BME280;36113;50.742;6.432;2023-08-20T12:22:52;99455.94;;;26.98;53.24
50226;BME280;36113;50.742;6.432;2023-08-20T12:25:17;99449.28;;;26.67;54.69
50226;BME280;36113;50.742;6.432;2023-08-20T12:27:42;99442.88;;;25.99;55.81
50226;BME280;36113;50.742;6.432;2023-08-20T12:30:08;99447.16;;;25.81;56.94
50226;BME280;36113;50.742;6.432;2023-08-20T12:32:33;99451.81;;;25.77;58.06
50226;BME280;36113;50.742;6.432;2023-08-20T12:34:58;99449.97;;;25.97;57.03
50226;BME280;36113;50.742;6.432;2023-08-20T12:37:23;99441.44;;;26.06;57.71
50226;BME280;36113;50.742;6.432;2023-08-20T12:39:48;99448.28;;;26.24;57.76
50226;BME280;36113;50.742;6.432;2023-08-20T12:42:14;99442.13;;;26.34;55.75
50226;BME280;36113;50.742;6.432;2023-08-20T12:44:39;99449.03;;;26.56;55.24
50226;BME280;36113;50.742;6.432;2023-08-20T12:47:04;99446.00;;;26.30;56.00
50226;BME280;36113;50.742;6.432;2023-08-20T12:49:29;99443.88;;;26.07;56.38
50226;BME280;36113;50.742;6.432;2023-08-20T12:51:55;99442.31;;;26.57;55.90
50226;BME280;36113;50.742;6.432;2023-08-20T12:54:20;99434.19;;;27.07;55.01
50226;BME280;36113;50.742;6.432;2023-08-20T12:56:45;99426.84;;;27.18;53.96
50226;BME280;36113;50.742;6.432;2023-08-20T12:59:10;99426.19;;;27.44;53.40
50226;BME280;36113;50.742;6.432;2023-08-20T13:01:35;99422.88;;;27.81;52.73
50226;BME280;36113;50.742;6.432;2023-08-20T13:04:01;99429.22;;;28.01;52.48